createdAt,value
2017-10-18T00:01:06.045Z,2.87
2017-10-18T00:03:33.563Z,1.40
2017-10-18T00:06:01.123Z,3.13
2017-10-18T00:08:28.704Z,2.20
2017-10-18T00:10:56.289Z,2.10
2017-10-18T00:13:23.823Z,2.00
2017-10-18T00:15:51.440Z,3.10
2017-10-18T00:18:18.986Z,1.40
2017-10-18T00:20:47.369Z,2.43
2017-10-18T00:23:15.686Z,4.73
2017-10-18T00:25:43.291Z,2.30
2017-10-18T00:28:10.816Z,2.30
2017-10-18T00:30:38.401Z,1.67
2017-10-18T00:33:05.932Z,2.00
2017-10-18T00:35:33.462Z,1.93
2017-10-18T00:38:01.029Z,1.93
2017-10-18T00:40:28.558Z,1.43
2017-10-18T00:42:56.871Z,4.23
2017-10-18T00:45:24.432Z,1.40
2017-10-18T00:47:51.946Z,1.70
2017-10-18T00:50:20.264Z,1.10
2017-10-18T00:52:47.815Z,1.13
2017-10-18T00:55:15.333Z,1.40
2017-10-18T00:57:43.648Z,1.17
2017-10-18T01:00:11.181Z,1.20
2017-10-18T01:02:39.486Z,1.47
2017-10-18T01:05:07.058Z,1.13
2017-10-18T01:07:34.600Z,1.00
2017-10-18T01:10:02.138Z,1.37
2017-10-18T01:12:30.504Z,1.00
2017-10-18T01:14:58.056Z,3.27
2017-10-18T01:17:25.591Z,0.93
2017-10-18T01:19:53.109Z,1.13
2017-10-18T01:22:20.785Z,0.60
2017-10-18T01:24:48.404Z,1.17
2017-10-18T01:27:16.728Z,0.80
2017-10-18T01:29:44.309Z,1.13
2017-10-18T01:32:11.850Z,0.90
2017-10-18T01:34:39.379Z,1.00
2017-10-18T01:37:06.940Z,1.90
2017-10-18T01:39:35.280Z,0.80
2017-10-18T01:42:02.859Z,0.73
2017-10-18T01:44:31.221Z,0.80
2017-10-18T01:46:58.746Z,1.07
2017-10-18T01:49:26.318Z,0.97
2017-10-18T01:51:53.846Z,0.87
2017-10-18T01:54:21.376Z,0.70
2017-10-18T01:56:48.919Z,2.10
2017-10-18T01:59:16.450Z,1.67
2017-10-18T02:01:43.984Z,0.60
2017-10-18T02:04:11.548Z,0.70
2017-10-18T02:06:39.118Z,1.13
2017-10-18T02:09:06.669Z,1.13
2017-10-18T02:11:34.226Z,0.80
2017-10-18T02:14:01.864Z,0.80
2017-10-18T02:16:30.220Z,1.17
2017-10-18T02:18:57.973Z,0.80
2017-10-18T02:21:25.498Z,0.67
2017-10-18T02:23:53.035Z,0.80
2017-10-18T02:26:20.724Z,0.70
2017-10-18T02:28:48.285Z,0.87
2017-10-18T02:31:15.821Z,0.60
2017-10-18T02:33:43.342Z,0.63
2017-10-18T02:36:10.923Z,0.73
2017-10-18T02:38:39.212Z,3.03
2017-10-18T02:41:06.778Z,2.30
2017-10-18T02:43:34.364Z,0.70
2017-10-18T02:46:01.908Z,2.10
2017-10-18T02:48:29.474Z,0.60
2017-10-18T02:50:58.680Z,0.80
2017-10-18T02:53:26.212Z,0.77
2017-10-18T02:55:53.780Z,0.73
2017-10-18T02:58:21.300Z,1.10
2017-10-18T03:00:49.677Z,0.90
2017-10-18T03:03:17.456Z,0.70
2017-10-18T03:05:45.776Z,0.97
2017-10-18T03:08:13.308Z,0.60
2017-10-18T03:10:40.848Z,0.80
2017-10-18T03:13:09.172Z,0.53
2017-10-18T03:15:36.738Z,0.80
2017-10-18T03:18:04.268Z,0.60
2017-10-18T03:20:31.789Z,1.40
2017-10-18T03:22:59.376Z,1.07
2017-10-18T03:25:26.933Z,0.50
2017-10-18T03:27:54.576Z,0.67
2017-10-18T03:30:22.878Z,0.60
2017-10-18T03:32:50.390Z,0.60
2017-10-18T03:35:17.965Z,0.50
2017-10-18T03:37:46.392Z,0.60
2017-10-18T03:40:13.980Z,0.60
2017-10-18T03:42:41.546Z,0.60
2017-10-18T03:45:09.128Z,0.70
2017-10-18T03:47:36.662Z,1.57
2017-10-18T03:50:04.259Z,0.60
2017-10-18T03:52:31.950Z,0.57
2017-10-18T03:54:59.508Z,0.60
2017-10-18T03:57:27.127Z,0.80
2017-10-18T03:59:54.699Z,0.60
2017-10-18T04:02:22.980Z,0.50
2017-10-18T04:07:23.248Z,0.80
2017-10-18T04:09:50.832Z,1.73
2017-10-18T04:12:18.413Z,1.43
2017-10-18T04:14:45.944Z,0.50
2017-10-18T04:17:13.515Z,0.60
2017-10-18T04:19:41.046Z,0.63
2017-10-18T04:22:08.836Z,0.50
2017-10-18T04:24:36.423Z,0.70
2017-10-18T04:27:04.075Z,0.50
2017-10-18T04:29:32.370Z,0.80
2017-10-18T04:32:00.707Z,0.50
2017-10-18T04:34:29.062Z,0.60
2017-10-18T04:36:56.611Z,0.60
2017-10-18T04:39:24.457Z,0.70
2017-10-18T04:41:52.786Z,0.60
2017-10-18T04:44:20.309Z,0.40
2017-10-18T04:46:48.000Z,0.50
2017-10-18T04:49:15.567Z,1.37
2017-10-18T04:51:43.113Z,0.80
2017-10-18T04:54:10.647Z,0.67
2017-10-18T04:56:38.223Z,0.97
2017-10-18T04:59:05.779Z,0.70
2017-10-18T05:01:33.323Z,0.60
2017-10-18T05:04:00.905Z,0.70
2017-10-18T05:06:28.435Z,0.60
2017-10-18T05:08:55.971Z,0.60
2017-10-18T05:11:23.543Z,2.07
2017-10-18T05:13:51.884Z,0.67
2017-10-18T05:16:19.519Z,0.47
2017-10-18T05:18:47.047Z,0.50
2017-10-18T05:21:15.379Z,1.03
2017-10-18T05:23:42.906Z,2.57
2017-10-18T05:26:10.449Z,0.80
2017-10-18T05:28:38.757Z,0.70
2017-10-18T05:31:06.313Z,0.50
2017-10-18T05:33:33.883Z,1.50
2017-10-18T05:36:01.515Z,0.60
2017-10-18T05:38:29.345Z,1.13
2017-10-18T05:40:58.484Z,0.60
2017-10-18T05:43:26.083Z,0.43
2017-10-18T05:45:53.624Z,0.50
2017-10-18T05:48:21.155Z,5.27
2017-10-18T05:50:48.743Z,1.67
2017-10-18T05:53:16.287Z,0.70
2017-10-18T05:55:43.837Z,2.83
2017-10-18T05:58:11.367Z,2.67
2017-10-18T06:00:39.712Z,5.23
2017-10-18T06:03:07.396Z,14.53
2017-10-18T06:05:34.989Z,13.87
2017-10-18T06:08:02.668Z,13.33
2017-10-18T06:10:30.319Z,22.20
2017-10-18T06:12:58.003Z,33.77
2017-10-18T06:15:25.583Z,13.73
2017-10-18T06:17:53.123Z,11.17
2017-10-18T06:20:20.893Z,9.37
2017-10-18T06:22:48.451Z,10.30
2017-10-18T06:25:15.995Z,12.50
2017-10-18T06:27:43.549Z,10.33
2017-10-18T06:30:11.915Z,18.33
2017-10-18T06:32:39.445Z,8.00
2017-10-18T06:35:07.005Z,29.57
2017-10-18T06:37:34.609Z,16.37
2017-10-18T06:40:02.178Z,19.90
2017-10-18T06:42:29.728Z,8.70
2017-10-18T06:44:57.319Z,9.63
2017-10-18T06:47:24.866Z,17.70
2017-10-18T06:49:52.399Z,12.50
2017-10-18T06:52:19.958Z,7.17
2017-10-18T06:54:47.530Z,10.97
2017-10-18T06:57:15.229Z,15.43
2017-10-18T06:59:42.789Z,7.17
2017-10-18T07:02:10.360Z,3.90
2017-10-18T07:04:37.911Z,4.70
2017-10-18T07:07:05.459Z,10.03
2017-10-18T07:09:33.003Z,4.63
2017-10-18T07:12:00.611Z,4.23
2017-10-18T07:14:29.211Z,3.70
2017-10-18T07:16:57.505Z,9.70
2017-10-18T07:19:25.137Z,8.93
2017-10-18T07:21:53.486Z,7.13
2017-10-18T07:24:21.025Z,17.03
2017-10-18T07:26:48.591Z,6.87
2017-10-18T07:29:16.945Z,9.77
2017-10-18T07:31:44.607Z,3.30
2017-10-18T07:34:12.152Z,9.87
2017-10-18T07:36:39.727Z,5.10
2017-10-18T07:39:07.244Z,4.30
2017-10-18T07:41:35.592Z,21.70
2017-10-18T07:44:03.128Z,5.70
2017-10-18T07:46:30.691Z,4.73
2017-10-18T07:48:58.261Z,3.50
2017-10-18T07:51:25.796Z,13.63
2017-10-18T07:53:53.375Z,6.10
2017-10-18T07:56:20.933Z,5.50
2017-10-18T07:58:48.521Z,5.83
2017-10-18T08:01:16.075Z,5.07
2017-10-18T08:03:43.611Z,3.83
2017-10-18T08:06:11.239Z,5.73
2017-10-18T08:08:38.825Z,10.20
2017-10-18T08:11:06.339Z,4.73
2017-10-18T08:13:34.645Z,4.90
2017-10-18T08:16:02.238Z,5.30
2017-10-18T08:18:29.761Z,9.90
2017-10-18T08:20:57.333Z,2.97
2017-10-18T08:23:25.073Z,6.07
2017-10-18T08:25:52.626Z,2.70
2017-10-18T08:28:21.279Z,4.63
2017-10-18T08:30:48.817Z,5.77
2017-10-18T08:33:16.351Z,4.20
2017-10-18T08:35:44.062Z,7.47
2017-10-18T08:38:11.612Z,4.07
2017-10-18T08:40:39.189Z,3.27
2017-10-18T08:43:06.729Z,6.03
2017-10-18T08:45:34.330Z,4.53
2017-10-18T08:48:02.823Z,3.40
2017-10-18T08:50:30.397Z,2.87
2017-10-18T08:52:57.911Z,2.83
2017-10-18T08:55:26.276Z,3.20
2017-10-18T08:57:53.809Z,3.13
2017-10-18T09:00:21.396Z,3.10
2017-10-18T09:02:48.933Z,2.67
2017-10-18T09:05:16.529Z,2.77
2017-10-18T09:07:44.129Z,2.23
2017-10-18T09:10:11.688Z,3.33
2017-10-18T09:12:39.210Z,4.40
2017-10-18T09:15:07.592Z,3.70
2017-10-18T09:17:35.124Z,3.80
2017-10-18T09:20:02.716Z,3.33
2017-10-18T09:22:31.066Z,4.13
2017-10-18T09:24:58.662Z,10.53
2017-10-18T09:27:26.943Z,4.73
2017-10-18T09:29:54.506Z,2.30
2017-10-18T09:32:22.129Z,4.27
2017-10-18T09:34:49.765Z,6.80
2017-10-18T09:37:17.307Z,4.70
2017-10-18T09:39:44.905Z,2.20
2017-10-18T09:42:12.466Z,3.87
2017-10-18T09:44:40.008Z,3.30
2017-10-18T09:47:07.570Z,2.17
2017-10-18T09:49:35.159Z,6.87
2017-10-18T09:52:02.714Z,1.87
2017-10-18T09:54:30.287Z,2.73
2017-10-18T09:56:58.784Z,4.13
2017-10-18T09:59:26.377Z,5.80
2017-10-18T10:01:53.895Z,4.03
2017-10-18T10:04:22.225Z,3.00
2017-10-18T10:06:49.857Z,5.30
2017-10-18T10:09:17.392Z,4.30
2017-10-18T10:11:45.709Z,2.67
2017-10-18T10:14:13.248Z,2.90
2017-10-18T10:16:40.871Z,3.13
2017-10-18T10:19:08.419Z,2.20
2017-10-18T10:21:36.036Z,2.53
2017-10-18T10:24:03.594Z,4.60
2017-10-18T10:26:31.357Z,2.00
2017-10-18T10:28:58.941Z,2.40
2017-10-18T10:31:26.486Z,2.77
2017-10-18T10:33:54.003Z,2.03
2017-10-18T10:36:22.360Z,2.43
2017-10-18T10:38:49.923Z,2.17
2017-10-18T10:41:18.249Z,2.43
2017-10-18T10:43:45.913Z,1.83
2017-10-18T10:46:13.483Z,7.13
2017-10-18T10:48:41.054Z,4.68
2017-10-18T10:51:08.659Z,3.10
2017-10-18T10:53:36.998Z,2.17
2017-10-18T10:56:04.539Z,2.70
2017-10-18T10:58:32.105Z,3.33
2017-10-18T11:00:59.659Z,2.87
2017-10-18T11:03:27.229Z,3.17
2017-10-18T11:05:54.868Z,2.73
2017-10-18T11:08:22.449Z,5.03
2017-10-18T11:10:49.987Z,1.80
2017-10-18T11:13:17.568Z,3.87
2017-10-18T11:15:45.115Z,5.80
2017-10-18T11:18:12.662Z,4.20
2017-10-18T11:20:40.234Z,4.73
2017-10-18T11:23:07.808Z,3.53
2017-10-18T11:25:35.369Z,4.63
2017-10-18T11:28:02.912Z,5.23
2017-10-18T11:30:30.483Z,3.13
2017-10-18T11:32:58.332Z,2.53
2017-10-18T11:35:25.859Z,3.20
2017-10-18T11:37:54.274Z,5.07
2017-10-18T11:40:21.817Z,5.50
2017-10-18T11:42:49.400Z,2.60
2017-10-18T11:45:16.944Z,3.27
2017-10-18T11:47:44.464Z,4.80
2017-10-18T11:50:12.798Z,2.67
2017-10-18T11:52:40.452Z,2.53
2017-10-18T11:55:07.977Z,2.63
2017-10-18T11:57:36.318Z,10.63
2017-10-18T12:00:03.838Z,6.83
2017-10-18T12:02:31.374Z,2.93
2017-10-18T12:04:59.732Z,2.93
2017-10-18T12:07:27.292Z,3.23
2017-10-18T12:09:54.877Z,8.93
2017-10-18T12:12:23.337Z,2.00
2017-10-18T12:14:51.681Z,2.60
2017-10-18T12:17:19.233Z,2.77
2017-10-18T12:19:46.966Z,2.20
2017-10-18T12:22:14.503Z,2.60
2017-10-18T12:24:42.818Z,2.50
2017-10-18T12:27:10.378Z,1.63
2017-10-18T12:29:37.916Z,3.20
2017-10-18T12:32:05.500Z,2.13
2017-10-18T12:34:33.048Z,2.50
2017-10-18T12:37:00.700Z,2.60
2017-10-18T12:39:28.250Z,3.33
2017-10-18T12:41:56.688Z,5.60
2017-10-18T12:44:24.233Z,26.63
2017-10-18T12:46:51.813Z,22.30
2017-10-18T12:49:19.374Z,15.77
2017-10-18T12:51:46.906Z,21.50
2017-10-18T12:54:14.558Z,13.03
2017-10-18T12:56:43.010Z,10.53
2017-10-18T12:59:11.326Z,15.13
2017-10-18T13:01:38.894Z,8.13
2017-10-18T13:04:06.438Z,14.80
2017-10-18T13:06:34.000Z,13.07
2017-10-18T13:09:01.640Z,3.87
2017-10-18T13:11:29.218Z,5.10
2017-10-18T13:13:56.761Z,6.33
2017-10-18T13:16:24.354Z,2.77
2017-10-18T13:18:52.020Z,9.00
2017-10-18T13:21:19.608Z,11.40
2017-10-18T13:23:47.135Z,2.57
2017-10-18T13:26:14.690Z,19.23
2017-10-18T13:28:42.250Z,17.67
2017-10-18T13:31:09.800Z,2.23
2017-10-18T13:33:37.388Z,7.87
2017-10-18T13:36:05.931Z,2.80
2017-10-18T13:38:33.482Z,2.13
2017-10-18T13:41:01.094Z,4.10
2017-10-18T13:43:29.445Z,9.27
2017-10-18T13:45:57.152Z,4.33
2017-10-18T13:48:25.468Z,4.20
2017-10-18T13:50:53.080Z,3.10
2017-10-18T13:53:20.653Z,5.03
2017-10-18T13:55:48.985Z,5.63
2017-10-18T13:58:16.563Z,2.60
2017-10-18T14:00:44.105Z,4.33
2017-10-18T14:03:11.768Z,2.40
2017-10-18T14:05:39.312Z,2.70
2017-10-18T14:08:06.875Z,3.20
2017-10-18T14:10:34.527Z,5.67
2017-10-18T14:13:02.079Z,4.50
2017-10-18T14:15:29.649Z,10.60
2017-10-18T14:17:57.413Z,13.70
2017-10-18T14:20:25.992Z,9.30
2017-10-18T14:22:53.541Z,23.60
2017-10-18T14:25:21.215Z,5.77
2017-10-18T14:27:48.889Z,6.83
2017-10-18T14:30:16.640Z,3.57
2017-10-18T14:32:44.202Z,3.93
2017-10-18T14:35:11.721Z,8.30
2017-10-18T14:37:39.678Z,10.33
2017-10-18T14:40:07.265Z,3.47
2017-10-18T14:42:34.886Z,4.00
2017-10-18T14:45:02.465Z,7.10
2017-10-18T14:47:30.070Z,5.50
2017-10-18T14:49:59.206Z,6.43
2017-10-18T14:52:26.751Z,14.53
2017-10-18T14:54:55.112Z,8.43
2017-10-18T14:57:22.920Z,6.57
2017-10-18T14:59:50.493Z,10.40
2017-10-18T15:02:18.140Z,6.43
2017-10-18T15:04:45.803Z,10.37
2017-10-18T15:07:13.345Z,6.33
2017-10-18T15:09:41.007Z,5.63
2017-10-18T15:12:08.546Z,8.13
2017-10-18T15:14:36.877Z,10.83
2017-10-18T15:17:04.470Z,8.40
2017-10-18T15:19:32.058Z,4.33
2017-10-18T15:22:00.390Z,7.63
2017-10-18T15:24:28.025Z,6.80
2017-10-18T15:26:55.593Z,5.03
2017-10-18T15:29:23.122Z,8.73
2017-10-18T15:31:50.868Z,4.50
2017-10-18T15:34:19.305Z,3.90
2017-10-18T15:36:46.853Z,9.27
2017-10-18T15:39:14.422Z,8.33
2017-10-18T15:41:42.004Z,17.87
2017-10-18T15:44:09.584Z,3.17
2017-10-18T15:46:37.915Z,3.37
2017-10-18T15:49:05.500Z,6.13
2017-10-18T15:51:33.069Z,4.63
2017-10-18T15:54:00.600Z,5.07
2017-10-18T15:56:28.137Z,3.77
2017-10-18T15:58:55.714Z,4.20
2017-10-18T16:01:23.259Z,3.90
2017-10-18T16:03:50.826Z,6.70
2017-10-18T16:06:18.375Z,3.87
2017-10-18T16:08:45.956Z,8.23
2017-10-18T16:11:13.558Z,7.13
2017-10-18T16:13:41.854Z,10.67
2017-10-18T16:16:09.419Z,12.53
2017-10-18T16:18:36.980Z,5.10
2017-10-18T16:21:04.515Z,3.50
2017-10-18T16:23:32.831Z,10.63
2017-10-18T16:26:00.367Z,8.23
2017-10-18T16:28:27.935Z,13.73
2017-10-18T16:30:55.512Z,7.47
2017-10-18T16:33:23.034Z,11.80
2017-10-18T16:35:51.379Z,13.00
2017-10-18T16:38:18.926Z,29.43
2017-10-18T16:40:46.522Z,37.47
2017-10-18T16:43:14.824Z,133.23
2017-10-18T16:45:42.372Z,68.97
2017-10-18T16:48:09.967Z,30.87
2017-10-18T16:50:37.504Z,29.43
2017-10-18T16:53:05.075Z,22.33
2017-10-18T16:55:32.667Z,18.83
2017-10-18T16:58:00.233Z,11.70
2017-10-18T17:00:27.829Z,22.83
2017-10-18T17:02:56.130Z,24.53
2017-10-18T17:05:23.691Z,20.17
2017-10-18T17:07:51.261Z,16.30
2017-10-18T17:10:18.792Z,13.43
2017-10-18T17:12:47.243Z,16.60
2017-10-18T17:15:14.791Z,14.23
2017-10-18T17:17:42.342Z,14.67
2017-10-18T17:20:09.936Z,10.67
2017-10-18T17:22:38.260Z,12.63
2017-10-18T17:25:05.835Z,10.87
2017-10-18T17:27:33.469Z,9.03
2017-10-18T17:30:00.988Z,17.63
2017-10-18T17:32:29.322Z,9.83
2017-10-18T17:34:56.959Z,7.03
2017-10-18T17:37:24.558Z,15.10
2017-10-18T17:39:52.077Z,9.03
2017-10-18T17:42:19.653Z,13.47
2017-10-18T17:44:47.243Z,12.73
2017-10-18T17:47:14.791Z,10.70
2017-10-18T17:49:42.511Z,11.20
2017-10-18T17:52:10.047Z,13.37
2017-10-18T17:54:38.367Z,11.80
2017-10-18T17:57:05.933Z,8.17
2017-10-18T17:59:33.575Z,14.60
2017-10-18T18:02:01.164Z,8.60
2017-10-18T18:04:29.031Z,10.37
2017-10-18T18:06:57.404Z,8.13
2017-10-18T18:09:24.943Z,8.40
2017-10-18T18:11:52.502Z,7.83
2017-10-18T18:14:20.096Z,11.20
2017-10-18T18:16:47.966Z,11.20
2017-10-18T18:19:15.525Z,7.73
2017-10-18T18:21:43.084Z,9.13
2017-10-18T18:24:10.695Z,8.10
2017-10-18T18:26:39.106Z,9.20
2017-10-18T18:29:06.685Z,8.57
2017-10-18T18:31:34.283Z,7.33
2017-10-18T18:34:02.633Z,9.60
2017-10-18T18:36:31.739Z,8.93
2017-10-18T18:38:59.289Z,7.13
2017-10-18T18:41:26.945Z,6.27
2017-10-18T18:43:54.507Z,9.70
2017-10-18T18:46:22.041Z,7.97
2017-10-18T18:48:49.779Z,12.60
2017-10-18T18:51:17.327Z,6.00
2017-10-18T18:53:45.636Z,6.40
2017-10-18T18:56:13.239Z,5.90
2017-10-18T18:58:40.945Z,5.83
2017-10-18T19:01:08.520Z,11.30
2017-10-18T19:03:36.127Z,8.20
2017-10-18T19:06:03.669Z,7.77
2017-10-18T19:08:31.196Z,6.67
2017-10-18T19:10:58.815Z,13.40
2017-10-18T19:13:27.138Z,8.60
2017-10-18T19:15:54.685Z,5.97
2017-10-18T19:18:22.259Z,5.10
2017-10-18T19:20:50.019Z,7.53
2017-10-18T19:23:17.583Z,6.87
2017-10-18T19:25:45.295Z,9.47
2017-10-18T19:28:13.771Z,7.67
2017-10-18T19:30:42.151Z,10.27
2017-10-18T19:33:09.693Z,7.43
2017-10-18T19:35:37.295Z,5.70
2017-10-18T19:38:04.859Z,16.03
2017-10-18T19:40:32.440Z,12.50
2017-10-18T19:43:00.043Z,10.50
2017-10-18T19:45:27.632Z,5.83
2017-10-18T19:47:55.330Z,6.63
2017-10-18T19:50:22.877Z,10.20
2017-10-18T19:52:50.475Z,12.07
2017-10-18T19:55:18.038Z,10.43
2017-10-18T19:57:45.611Z,10.23
2017-10-18T20:00:13.923Z,7.70
2017-10-18T20:02:41.489Z,16.40
2017-10-18T20:05:09.058Z,8.13
2017-10-18T20:07:36.653Z,11.70
2017-10-18T20:10:04.279Z,8.00
2017-10-18T20:12:31.835Z,7.37
2017-10-18T20:14:59.442Z,9.10
2017-10-18T20:17:28.592Z,8.43
2017-10-18T20:19:56.195Z,8.97
2017-10-18T20:22:25.254Z,7.23
2017-10-18T20:24:52.847Z,8.00
2017-10-18T20:27:20.375Z,9.30
2017-10-18T20:29:48.048Z,8.00
2017-10-18T20:32:15.607Z,11.23
2017-10-18T20:34:43.138Z,15.10
2017-10-18T20:37:10.719Z,8.83
2017-10-18T20:39:38.272Z,13.30
2017-10-18T20:42:05.919Z,10.20
2017-10-18T20:44:33.531Z,8.40
2017-10-18T20:47:01.222Z,10.20
2017-10-18T20:49:29.526Z,7.27
2017-10-18T20:51:57.149Z,9.57
2017-10-18T20:54:25.502Z,13.43
2017-10-18T20:56:53.037Z,8.43
2017-10-18T20:59:20.667Z,7.57
2017-10-18T21:01:48.260Z,8.10
2017-10-18T21:04:15.942Z,8.17
2017-10-18T21:06:43.522Z,15.07
2017-10-18T21:09:11.216Z,17.73
2017-10-18T21:11:38.888Z,6.70
2017-10-18T21:14:06.438Z,5.70
2017-10-18T21:16:34.001Z,7.00
2017-10-18T21:19:01.612Z,8.13
2017-10-18T21:21:29.140Z,9.70
2017-10-18T21:23:56.670Z,10.63
2017-10-18T21:26:24.296Z,5.67
2017-10-18T21:28:51.900Z,8.33
2017-10-18T21:31:19.420Z,7.40
2017-10-18T21:33:47.802Z,12.83
2017-10-18T21:36:15.351Z,4.67
2017-10-18T21:38:42.918Z,15.03
2017-10-18T21:41:10.472Z,4.23
2017-10-18T21:43:38.056Z,4.37
2017-10-18T21:46:06.382Z,4.67
2017-10-18T21:48:33.937Z,4.37
2017-10-18T21:51:01.650Z,3.80
2017-10-18T21:53:30.166Z,3.70
2017-10-18T21:55:57.709Z,4.00
2017-10-18T21:58:25.228Z,3.43
2017-10-18T22:00:52.774Z,3.70
2017-10-18T22:03:20.350Z,2.70
2017-10-18T22:05:49.362Z,5.50
2017-10-18T22:08:17.671Z,2.77
2017-10-18T22:10:45.248Z,4.20
2017-10-18T22:13:12.784Z,3.10
2017-10-18T22:15:40.450Z,4.20
2017-10-18T22:18:08.016Z,3.57
2017-10-18T22:20:35.655Z,5.33
2017-10-18T22:23:03.319Z,2.90
2017-10-18T22:25:30.862Z,4.03
2017-10-18T22:27:59.182Z,3.27
2017-10-18T22:30:27.025Z,2.40
2017-10-18T22:32:54.594Z,2.00
2017-10-18T22:35:22.147Z,3.20
2017-10-18T22:37:49.705Z,3.20
2017-10-18T22:40:17.231Z,3.53
2017-10-18T22:42:44.802Z,2.80
2017-10-18T22:45:13.122Z,2.27
2017-10-18T22:47:40.660Z,2.50
2017-10-18T22:50:08.220Z,2.30
2017-10-18T22:52:35.748Z,2.80
2017-10-18T22:55:04.116Z,3.30
2017-10-18T22:57:31.659Z,2.60
2017-10-18T22:59:59.177Z,2.07
2017-10-18T23:02:26.718Z,2.53
2017-10-18T23:04:55.033Z,1.90
2017-10-18T23:07:22.584Z,1.83
2017-10-18T23:09:50.165Z,2.87
2017-10-18T23:12:17.695Z,1.60
2017-10-18T23:14:45.226Z,2.37
2017-10-18T23:17:13.576Z,3.03
2017-10-18T23:19:42.047Z,2.10
2017-10-18T23:22:09.726Z,2.03
2017-10-18T23:24:37.248Z,2.97
2017-10-18T23:27:04.859Z,1.93
2017-10-18T23:29:33.138Z,1.53
2017-10-18T23:32:01.866Z,2.87
2017-10-18T23:34:29.450Z,1.60
2017-10-18T23:36:56.974Z,1.83
2017-10-18T23:39:25.442Z,2.00
2017-10-18T23:41:52.956Z,1.20
2017-10-18T23:44:20.564Z,1.77
2017-10-18T23:46:48.229Z,1.60
2017-10-18T23:49:15.758Z,3.97
2017-10-18T23:51:44.054Z,2.50
2017-10-18T23:54:11.707Z,3.20
2017-10-18T23:56:40.055Z,1.90
2017-10-18T23:59:07.606Z,0.97
